Time;durP1;ratioP1;P1;durP2;ratioP2;P2;SDS_P1;SDS_P2;PMS_P1;PMS_P2;Temp;Humidity;BMP_temperature;BMP_pressure;BME280_temperature;BME280_humidity;BME280_pressure;Samples;Min_cycle;Max_cycle;Signal;HPM_P1;HPM_P2
2022/09/14 00:02:11;;;;;;;3.97;1.90;;;;;;;;;;5098031;27;91574;-68
2022/09/14 00:04:40;;;;;;;10.57;2.25;;;;;;;;;;5083791;27;92434;-68
2022/09/14 00:07:07;;;;;;;8.55;1.95;;;;;;;;;;5088545;27;93125;-68
2022/09/14 00:09:33;;;;;;;9.50;1.67;;;;;;;;;;5094890;27;95710;-68
2022/09/14 00:12:00;;;;;;;13.88;2.33;;;;;;;;;;5096607;27;92497;-68
2022/09/14 00:14:26;;;;;;;7.97;2.33;;;;;;;;;;5097397;27;93255;-68
2022/09/14 00:16:52;;;;;;;5.40;1.50;;;;;;;;;;5097063;27;93173;-68
2022/09/14 00:19:23;;;;;;;7.78;1.70;;;;;;;;;;5096578;27;92533;-68
2022/09/14 00:21:56;;;;;;;6.45;2.03;;;;;;;;;;5089090;27;92773;-68
2022/09/14 00:24:23;;;;;;;3.95;1.70;;;;;;;;;;5078523;27;93255;-68
2022/09/14 00:26:50;;;;;;;9.50;2.28;;;;;;;;;;5097136;27;93094;-68
2022/09/14 00:29:16;;;;;;;7.28;1.80;;;;;;;;;;5096989;27;93062;-68
2022/09/14 00:31:42;;;;;;;8.45;1.88;;;;;;;;;;5096712;27;92895;-68
2022/09/14 00:34:11;;;;;;;5.22;1.85;;;;;;;;;;5095485;27;94738;-68
2022/09/14 00:36:39;;;;;;;7.13;1.98;;;;;;;;;;5096183;27;93238;-68
2022/09/14 00:39:06;;;;;;;8.20;2.10;;;;;;;;;;5096044;27;92420;-68
2022/09/14 00:41:33;;;;;;;5.47;1.52;;;;;;;;;;5099087;27;92699;-68
2022/09/14 00:44:07;;;;;;;8.10;1.67;;;;;;;;;;5096348;27;92825;-68
2022/09/14 00:46:37;;;;;;;10.68;2.05;;;;;;;;;;5096139;27;92644;-68
2022/09/14 00:49:06;;;;;;;4.88;1.73;;;;;;;;;;5096504;27;93136;-68
2022/09/14 00:51:33;;;;;;;5.75;1.95;;;;;;;;;;5097864;27;91703;-68
2022/09/14 00:54:01;;;;;;;6.35;2.30;;;;;;;;;;5094291;27;92673;-68
2022/09/14 00:56:27;;;;;;;12.50;2.70;;;;;;;;;;5078724;27;93344;-68
2022/09/14 00:58:56;;;;;;;10.20;2.45;;;;;;;;;;5080465;27;94747;-68
2022/09/14 01:01:24;;;;;;;16.38;2.20;;;;;;;;;;5096283;27;96386;-68
2022/09/14 01:03:51;;;;;;;10.73;1.90;;;;;;;;;;5100192;27;94308;-68
2022/09/14 01:06:34;;;;;;;7.85;2.05;;;;;;;;;;5096884;27;93924;-68
2022/09/14 01:09:06;;;;;;;6.70;1.70;;;;;;;;;;5096787;27;94188;-68
2022/09/14 01:11:38;;;;;;;10.02;2.50;;;;;;;;;;5096692;27;92422;-68
2022/09/14 01:14:25;;;;;;;7.25;2.53;;;;;;;;;;5077293;27;92773;-68
2022/09/14 01:16:54;;;;;;;6.32;2.20;;;;;;;;;;5076550;27;92480;-68
2022/09/14 01:19:39;;;;;;;9.02;1.92;;;;;;;;;;5075974;27;92295;-68
2022/09/14 01:22:09;;;;;;;7.85;1.83;;;;;;;;;;5085710;27;93027;-68
2022/09/14 01:24:35;;;;;;;9.38;2.15;;;;;;;;;;5074548;27;96524;-68
2022/09/14 01:27:04;;;;;;;5.07;1.95;;;;;;;;;;5079514;27;92425;-68
2022/09/14 01:29:47;;;;;;;4.45;2.15;;;;;;;;;;5073854;27;93567;-68
2022/09/14 01:32:18;;;;;;;11.38;2.75;;;;;;;;;;5084629;27;92436;-68
2022/09/14 01:34:44;;;;;;;5.28;1.80;;;;;;;;;;5075465;27;93020;-68
2022/09/14 01:37:13;;;;;;;16.58;2.20;;;;;;;;;;5076567;27;93256;-68
2022/09/14 01:39:42;;;;;;;7.13;1.92;;;;;;;;;;5079816;27;92453;-68
2022/09/14 01:42:11;;;;;;;6.68;2.03;;;;;;;;;;5092304;27;92953;-68
2022/09/14 01:44:38;;;;;;;5.90;2.40;;;;;;;;;;5078631;27;93415;-68
2022/09/14 01:47:09;;;;;;;5.80;1.85;;;;;;;;;;5092891;27;92518;-68
2022/09/14 01:49:40;;;;;;;4.40;2.08;;;;;;;;;;5092966;27;94820;-69
2022/09/14 01:52:12;;;;;;;6.90;2.55;;;;;;;;;;5078375;27;92394;-68
2022/09/14 01:54:47;;;;;;;5.30;1.80;;;;;;;;;;5074712;27;93548;-68
2022/09/14 01:57:16;;;;;;;8.20;1.92;;;;;;;;;;5077913;27;94048;-68
2022/09/14 01:59:44;;;;;;;7.80;1.77;;;;;;;;;;5077363;27;92943;-69
2022/09/14 02:02:29;;;;;;;9.00;2.55;;;;;;;;;;5076007;27;93700;-68
2022/09/14 02:04:58;;;;;;;4.80;2.25;;;;;;;;;;5074678;27;94307;-68
2022/09/14 02:07:25;;;;;;;10.60;2.30;;;;;;;;;;5085191;27;91792;-68
2022/09/14 02:09:52;;;;;;;7.35;1.80;;;;;;;;;;5095245;27;93183;-68
2022/09/14 02:12:18;;;;;;;2.65;1.67;;;;;;;;;;5098396;27;93082;-69
2022/09/14 02:14:45;;;;;;;4.40;2.25;;;;;;;;;;5094708;27;94808;-68
2022/09/14 02:17:12;;;;;;;4.20;1.88;;;;;;;;;;5089327;27;93999;-68
2022/09/14 02:19:40;;;;;;;6.28;1.75;;;;;;;;;;5074809;27;92530;-68
2022/09/14 02:22:07;;;;;;;2.97;1.60;;;;;;;;;;5089007;27;93100;-69
2022/09/14 02:24:33;;;;;;;4.70;2.05;;;;;;;;;;5083141;27;93395;-68
2022/09/14 02:27:00;;;;;;;8.23;2.17;;;;;;;;;;5074501;27;92551;-68
2022/09/14 02:29:27;;;;;;;6.65;2.10;;;;;;;;;;5075437;27;93893;-68
2022/09/14 02:32:02;;;;;;;10.50;1.85;;;;;;;;;;5074208;27;92354;-68
2022/09/14 02:34:37;;;;;;;9.00;2.92;;;;;;;;;;5078870;27;93079;-68
2022/09/14 02:37:21;;;;;;;7.13;2.20;;;;;;;;;;5074769;27;93317;-68
2022/09/14 02:39:59;;;;;;;5.50;2.50;;;;;;;;;;5072269;27;95315;-68
2022/09/14 02:42:36;;;;;;;10.40;2.10;;;;;;;;;;5075262;27;95572;-68
2022/09/14 02:45:05;;;;;;;10.35;2.13;;;;;;;;;;5073696;27;93439;-68
2022/09/14 02:47:34;;;;;;;6.32;2.30;;;;;;;;;;5081449;27;92426;-68
2022/09/14 02:50:15;;;;;;;10.85;2.63;;;;;;;;;;5094918;27;93922;-68
2022/09/14 02:53:00;;;;;;;7.93;2.30;;;;;;;;;;5094709;27;94295;-68
2022/09/14 02:55:29;;;;;;;10.95;2.40;;;;;;;;;;5098078;27;92763;-68
2022/09/14 02:58:04;;;;;;;7.75;2.47;;;;;;;;;;5090496;27;92607;-68
2022/09/14 03:00:31;;;;;;;10.75;2.42;;;;;;;;;;5077131;27;92462;-68
2022/09/14 03:02:57;;;;;;;10.38;2.17;;;;;;;;;;5077994;27;93001;-68
2022/09/14 03:05:24;;;;;;;4.40;2.40;;;;;;;;;;5076355;27;95899;-68
2022/09/14 03:07:50;;;;;;;8.57;2.80;;;;;;;;;;5077364;27;92394;-68
2022/09/14 03:10:16;;;;;;;3.03;2.28;;;;;;;;;;5078178;27;92388;-68
2022/09/14 03:12:43;;;;;;;19.33;3.40;;;;;;;;;;5077846;27;93384;-68
2022/09/14 03:15:10;;;;;;;6.57;2.70;;;;;;;;;;5078235;27;92455;-68
2022/09/14 03:17:36;;;;;;;9.27;2.70;;;;;;;;;;5081152;27;94104;-68
2022/09/14 03:20:03;;;;;;;3.17;2.20;;;;;;;;;;5092719;27;94218;-68
2022/09/14 03:22:31;;;;;;;6.05;2.40;;;;;;;;;;5082173;27;92825;-68
2022/09/14 03:24:57;;;;;;;6.10;2.30;;;;;;;;;;5077729;27;94209;-68
2022/09/14 03:27:23;;;;;;;7.07;2.58;;;;;;;;;;5077569;27;93025;-68
2022/09/14 03:29:49;;;;;;;9.55;2.55;;;;;;;;;;5076455;27;94863;-69
2022/09/14 03:32:16;;;;;;;12.32;2.83;;;;;;;;;;5086768;27;94303;-68
2022/09/14 03:34:42;;;;;;;8.25;2.75;;;;;;;;;;5096724;27;92514;-68
2022/09/14 03:37:08;;;;;;;3.42;2.03;;;;;;;;;;5098877;27;94037;-69
2022/09/14 03:39:35;;;;;;;9.43;2.42;;;;;;;;;;5100649;27;93005;-69
2022/09/14 03:42:01;;;;;;;4.90;2.00;;;;;;;;;;5096860;27;93136;-68
2022/09/14 03:44:27;;;;;;;4.65;2.38;;;;;;;;;;5097695;27;92351;-68
2022/09/14 03:46:53;;;;;;;5.55;2.45;;;;;;;;;;5097728;27;91704;-68
2022/09/14 03:49:20;;;;;;;4.63;2.20;;;;;;;;;;5096596;27;93247;-70
2022/09/14 03:51:46;;;;;;;7.97;2.78;;;;;;;;;;5098038;27;94647;-68
2022/09/14 03:54:12;;;;;;;8.45;2.50;;;;;;;;;;5096913;27;94796;-70
2022/09/14 03:56:39;;;;;;;5.90;2.60;;;;;;;;;;5091923;27;95573;-70
2022/09/14 03:59:07;;;;;;;5.15;2.63;;;;;;;;;;5076029;27;93456;-70
2022/09/14 04:01:34;;;;;;;8.05;2.70;;;;;;;;;;5080288;27;92484;-70
2022/09/14 04:04:01;;;;;;;8.55;2.65;;;;;;;;;;5075778;27;93387;-70
2022/09/14 04:06:27;;;;;;;15.27;2.97;;;;;;;;;;5078154;27;92416;-70
2022/09/14 04:08:54;;;;;;;7.63;2.45;;;;;;;;;;5075597;27;92856;-70
2022/09/14 04:11:22;;;;;;;5.10;2.72;;;;;;;;;;5077162;27;93301;-70
2022/09/14 04:13:49;;;;;;;7.20;3.00;;;;;;;;;;5077322;27;92392;-70
2022/09/14 04:16:16;;;;;;;6.60;2.53;;;;;;;;;;5076300;27;93519;-70
2022/09/14 04:18:43;;;;;;;13.95;3.10;;;;;;;;;;5074909;27;95990;-70
2022/09/14 04:21:12;;;;;;;5.40;2.90;;;;;;;;;;5082495;27;92443;-67
2022/09/14 04:23:38;;;;;;;11.45;3.15;;;;;;;;;;5086408;27;93478;-68
2022/09/14 04:26:26;;;;;;;3.47;2.40;;;;;;;;;;5076627;27;92421;-68
2022/09/14 04:28:52;;;;;;;8.50;2.95;;;;;;;;;;5076334;27;92332;-68
2022/09/14 04:31:19;;;;;;;5.88;2.58;;;;;;;;;;5075869;27;93160;-68
2022/09/14 04:33:47;;;;;;;4.60;2.55;;;;;;;;;;5077072;27;92423;-70
2022/09/14 04:36:15;;;;;;;5.30;3.13;;;;;;;;;;5077251;27;93024;-70
2022/09/14 04:38:42;;;;;;;6.45;3.00;;;;;;;;;;5077202;27;94345;-70
2022/09/14 04:41:12;;;;;;;5.95;2.38;;;;;;;;;;5093236;27;92401;-70
2022/09/14 04:43:39;;;;;;;6.05;2.88;;;;;;;;;;5095220;27;94748;-70
2022/09/14 04:46:08;;;;;;;5.45;3.03;;;;;;;;;;5097920;27;93422;-69
2022/09/14 04:48:35;;;;;;;7.78;2.55;;;;;;;;;;5076210;27;93007;-69
2022/09/14 04:51:02;;;;;;;11.57;3.25;;;;;;;;;;5075349;27;94834;-71
2022/09/14 04:53:28;;;;;;;5.72;3.17;;;;;;;;;;5075553;27;92483;-69
2022/09/14 04:55:59;;;;;;;4.82;2.88;;;;;;;;;;5076544;27;93774;-69
2022/09/14 04:58:27;;;;;;;9.23;3.10;;;;;;;;;;5075418;27;93261;-69
2022/09/14 05:00:54;;;;;;;9.15;3.92;;;;;;;;;;5076469;27;91658;-69
2022/09/14 05:03:21;;;;;;;7.40;3.28;;;;;;;;;;5075884;27;92418;-70
2022/09/14 05:05:47;;;;;;;7.80;3.55;;;;;;;;;;5078016;27;93649;-70
2022/09/14 05:08:13;;;;;;;8.85;3.72;;;;;;;;;;5074545;27;94830;-69
2022/09/14 05:10:39;;;;;;;6.38;3.03;;;;;;;;;;5075633;27;93380;-69
2022/09/14 05:13:06;;;;;;;4.78;3.00;;;;;;;;;;5075844;27;92937;-69
2022/09/14 05:15:32;;;;;;;7.47;3.45;;;;;;;;;;5095473;27;93127;-69
2022/09/14 05:17:58;;;;;;;6.70;3.30;;;;;;;;;;5076462;27;92548;-69
2022/09/14 05:20:25;;;;;;;5.00;3.03;;;;;;;;;;5075538;27;92470;-69
2022/09/14 05:22:51;;;;;;;8.20;3.45;;;;;;;;;;5096507;27;93528;-69
2022/09/14 05:25:17;;;;;;;8.00;4.05;;;;;;;;;;5096533;27;92659;-69
2022/09/14 05:27:44;;;;;;;16.80;3.97;;;;;;;;;;5099040;27;92429;-69
2022/09/14 05:30:10;;;;;;;9.23;3.45;;;;;;;;;;5095730;27;93410;-69
2022/09/14 05:32:36;;;;;;;5.07;3.00;;;;;;;;;;5073647;27;94857;-69
2022/09/14 05:35:03;;;;;;;12.25;3.03;;;;;;;;;;5074340;27;95463;-69
2022/09/14 05:37:29;;;;;;;10.38;3.30;;;;;;;;;;5075439;27;93495;-69
2022/09/14 05:39:55;;;;;;;10.23;3.05;;;;;;;;;;5075957;27;92429;-69
2022/09/14 05:42:22;;;;;;;5.28;2.60;;;;;;;;;;5074870;27;92764;-69
2022/09/14 05:44:48;;;;;;;7.22;3.13;;;;;;;;;;5076104;27;94017;-69
2022/09/14 05:47:17;;;;;;;4.93;3.20;;;;;;;;;;5074004;27;94291;-69
2022/09/14 05:49:43;;;;;;;13.32;3.17;;;;;;;;;;5087867;27;93391;-69
2022/09/14 05:52:10;;;;;;;9.00;3.30;;;;;;;;;;5080687;27;92539;-68
2022/09/14 05:54:36;;;;;;;6.80;2.88;;;;;;;;;;5074848;27;93944;-68
2022/09/14 05:57:02;;;;;;;7.82;3.22;;;;;;;;;;5074417;27;96417;-68
2022/09/14 05:59:30;;;;;;;7.43;2.58;;;;;;;;;;5077449;27;92998;-68
2022/09/14 06:01:57;;;;;;;12.23;2.88;;;;;;;;;;5094794;27;92856;-68
2022/09/14 06:04:23;;;;;;;8.30;2.88;;;;;;;;;;5084543;27;93666;-69
2022/09/14 06:06:50;;;;;;;4.45;2.70;;;;;;;;;;5072342;27;93349;-68
2022/09/14 06:09:36;;;;;;;8.02;2.97;;;;;;;;;;5083973;27;93244;-69
2022/09/14 06:12:03;;;;;;;11.90;3.20;;;;;;;;;;5080697;27;93384;-68
2022/09/14 06:14:29;;;;;;;4.72;2.60;;;;;;;;;;5076630;27;93965;-69
2022/09/14 06:16:56;;;;;;;10.85;4.13;;;;;;;;;;5071518;27;93416;-69
2022/09/14 06:19:22;;;;;;;9.07;3.00;;;;;;;;;;5074361;27;94126;-68
2022/09/14 06:21:48;;;;;;;12.00;3.83;;;;;;;;;;5073389;27;94746;-68
2022/09/14 06:24:14;;;;;;;7.22;3.22;;;;;;;;;;5090998;27;93381;-68
2022/09/14 06:26:41;;;;;;;10.20;4.13;;;;;;;;;;5095171;27;93035;-68
2022/09/14 06:29:07;;;;;;;11.75;4.43;;;;;;;;;;5076176;27;93030;-68
2022/09/14 06:31:34;;;;;;;9.40;3.50;;;;;;;;;;5074194;27;93378;-68
2022/09/14 06:34:00;;;;;;;8.70;3.53;;;;;;;;;;5098263;27;92565;-68
2022/09/14 06:36:27;;;;;;;8.02;3.67;;;;;;;;;;5094124;27;93413;-68
2022/09/14 06:38:53;;;;;;;8.45;3.40;;;;;;;;;;5088779;27;91990;-68
2022/09/14 06:41:22;;;;;;;10.13;3.65;;;;;;;;;;5075424;27;95031;-68
2022/09/14 06:43:48;;;;;;;5.53;3.13;;;;;;;;;;5075651;27;93226;-68
2022/09/14 06:46:19;;;;;;;7.78;3.65;;;;;;;;;;5083867;27;94887;-69
2022/09/14 06:48:50;;;;;;;12.98;4.75;;;;;;;;;;5080188;27;95302;-68
2022/09/14 06:51:16;;;;;;;7.22;4.10;;;;;;;;;;5078406;27;95627;-68
2022/09/14 06:53:43;;;;;;;10.57;3.83;;;;;;;;;;5086627;27;92425;-68
2022/09/14 06:56:10;;;;;;;9.15;4.45;;;;;;;;;;5095099;27;92971;-68
2022/09/14 06:58:36;;;;;;;16.20;4.43;;;;;;;;;;5084480;27;92526;-68
2022/09/14 07:01:04;;;;;;;9.20;4.53;;;;;;;;;;5082279;27;93664;-68
2022/09/14 07:03:30;;;;;;;7.80;3.75;;;;;;;;;;5075398;27;91798;-68
2022/09/14 07:06:05;;;;;;;11.90;4.25;;;;;;;;;;5087625;27;92612;-68
2022/09/14 07:08:32;;;;;;;8.77;4.30;;;;;;;;;;5076710;27;93352;-68
2022/09/14 07:10:59;;;;;;;9.98;4.00;;;;;;;;;;5076120;27;96877;-67
2022/09/14 07:13:26;;;;;;;12.50;4.50;;;;;;;;;;5087311;27;92552;-68
2022/09/14 07:15:52;;;;;;;9.02;4.25;;;;;;;;;;5085091;27;93245;-68
2022/09/14 07:18:19;;;;;;;6.63;3.72;;;;;;;;;;5082233;27;92434;-68
2022/09/14 07:20:45;;;;;;;9.18;4.00;;;;;;;;;;5095590;27;92807;-68
2022/09/14 07:23:12;;;;;;;5.45;4.30;;;;;;;;;;5082739;27;94565;-68
2022/09/14 07:25:39;;;;;;;10.45;4.30;;;;;;;;;;5089051;27;92644;-68
2022/09/14 07:28:05;;;;;;;16.80;5.30;;;;;;;;;;5082124;27;93157;-68
2022/09/14 07:30:36;;;;;;;10.05;3.60;;;;;;;;;;5088074;27;94150;-67
2022/09/14 07:33:06;;;;;;;5.78;3.80;;;;;;;;;;5079064;27;93447;-68
2022/09/14 07:35:32;;;;;;;13.30;3.67;;;;;;;;;;5077782;27;94901;-68
2022/09/14 07:37:58;;;;;;;11.98;3.47;;;;;;;;;;5080075;27;93162;-68
2022/09/14 07:40:25;;;;;;;13.07;4.60;;;;;;;;;;5077445;27;93959;-68
2022/09/14 07:42:52;;;;;;;8.57;3.83;;;;;;;;;;5076919;27;93319;-68
2022/09/14 07:45:23;;;;;;;10.88;4.07;;;;;;;;;;5077350;27;92441;-68
2022/09/14 07:47:49;;;;;;;6.68;3.50;;;;;;;;;;5076028;27;93161;-68
2022/09/14 07:50:17;;;;;;;13.98;3.63;;;;;;;;;;5077043;27;93424;-68
2022/09/14 07:52:43;;;;;;;11.65;3.88;;;;;;;;;;5077947;27;91991;-68
2022/09/14 07:55:11;;;;;;;12.32;3.85;;;;;;;;;;5076550;27;92447;-68
2022/09/14 07:57:38;;;;;;;12.77;4.30;;;;;;;;;;5077134;27;93423;-68
2022/09/14 08:00:21;;;;;;;7.50;3.50;;;;;;;;;;5078520;27;94889;-68
2022/09/14 08:02:51;;;;;;;5.93;3.78;;;;;;;;;;5076739;27;92990;-68
2022/09/14 08:05:18;;;;;;;21.40;4.30;;;;;;;;;;5078053;27;93083;-68
2022/09/14 08:07:45;;;;;;;16.23;4.68;;;;;;;;;;5077665;27;92869;-68
2022/09/14 08:10:11;;;;;;;9.93;3.15;;;;;;;;;;5077185;27;92870;-68
2022/09/14 08:12:38;;;;;;;5.40;3.30;;;;;;;;;;5078146;27;92375;-68
2022/09/14 08:15:04;;;;;;;11.30;3.95;;;;;;;;;;5077801;27;92814;-68
2022/09/14 08:17:30;;;;;;;16.20;3.67;;;;;;;;;;5077267;27;92204;-68
2022/09/14 08:19:57;;;;;;;8.57;3.60;;;;;;;;;;5077515;27;92300;-68
2022/09/14 08:22:24;;;;;;;14.80;3.60;;;;;;;;;;5079942;27;92798;-68
2022/09/14 08:24:50;;;;;;;9.70;3.90;;;;;;;;;;5075658;27;94863;-68
2022/09/14 08:27:17;;;;;;;8.10;3.58;;;;;;;;;;5077564;27;95066;-68
2022/09/14 08:29:43;;;;;;;7.20;2.97;;;;;;;;;;5076267;27;93137;-68
2022/09/14 08:32:10;;;;;;;8.07;2.65;;;;;;;;;;5077241;27;92364;-68
2022/09/14 08:34:36;;;;;;;13.65;3.03;;;;;;;;;;5077530;27;92960;-68
2022/09/14 08:37:03;;;;;;;7.25;2.78;;;;;;;;;;5076188;27;93188;-67
2022/09/14 08:39:29;;;;;;;11.15;3.20;;;;;;;;;;5077637;27;92427;-67
2022/09/14 08:41:57;;;;;;;9.18;2.88;;;;;;;;;;5077318;27;92876;-67
2022/09/14 08:44:43;;;;;;;6.25;2.92;;;;;;;;;;5079654;27;93162;-67
2022/09/14 08:47:15;;;;;;;10.20;2.88;;;;;;;;;;5077691;27;92370;-67
2022/09/14 08:50:01;;;;;;;5.28;2.97;;;;;;;;;;5073770;27;95547;-68
2022/09/14 08:52:30;;;;;;;13.10;3.17;;;;;;;;;;5076225;27;92408;-68
2022/09/14 08:54:58;;;;;;;11.00;3.35;;;;;;;;;;5076137;27;92718;-68
2022/09/14 08:57:50;;;;;;;9.90;3.65;;;;;;;;;;5076977;27;94173;-68
2022/09/14 09:00:20;;;;;;;10.95;3.10;;;;;;;;;;5072759;27;92327;-68
2022/09/14 09:03:09;;;;;;;11.45;2.72;;;;;;;;;;5075883;27;92917;-68
2022/09/14 09:05:38;;;;;;;7.43;2.60;;;;;;;;;;5074095;27;93132;-69
2022/09/14 09:08:17;;;;;;;10.52;2.67;;;;;;;;;;5079954;27;91589;-69
2022/09/14 09:10:44;;;;;;;7.32;2.67;;;;;;;;;;5075698;27;93155;-69
2022/09/14 09:13:13;;;;;;;12.25;3.42;;;;;;;;;;5081199;27;93024;-68
2022/09/14 09:15:50;;;;;;;8.15;3.10;;;;;;;;;;5095799;27;94982;-68
2022/09/14 09:18:16;;;;;;;8.88;3.03;;;;;;;;;;5097069;27;93246;-68
2022/09/14 09:20:45;;;;;;;7.95;3.25;;;;;;;;;;5096607;27;92925;-68
2022/09/14 09:23:18;;;;;;;7.25;2.80;;;;;;;;;;5097373;27;92835;-68
2022/09/14 09:26:04;;;;;;;8.93;3.03;;;;;;;;;;5076863;27;93125;-68
2022/09/14 09:28:30;;;;;;;7.93;3.15;;;;;;;;;;5079700;27;92361;-68
2022/09/14 09:30:59;;;;;;;6.90;3.25;;;;;;;;;;5084474;27;93056;-68
2022/09/14 09:33:41;;;;;;;7.80;2.60;;;;;;;;;;5061133;27;92894;-68
2022/09/14 09:36:14;;;;;;;6.65;2.72;;;;;;;;;;5057664;27;92472;-68
2022/09/14 09:38:41;;;;;;;14.13;2.95;;;;;;;;;;5057558;27;95657;-68
2022/09/14 09:41:11;;;;;;;5.80;2.90;;;;;;;;;;5091960;27;94867;-68
2022/09/14 09:43:57;;;;;;;6.75;3.33;;;;;;;;;;5073008;27;97813;-68
2022/09/14 09:46:23;;;;;;;7.03;3.03;;;;;;;;;;5076076;27;93990;-68
2022/09/14 09:48:50;;;;;;;7.70;2.92;;;;;;;;;;5074820;27;92921;-68
2022/09/14 09:51:25;;;;;;;7.45;2.53;;;;;;;;;;5077958;27;93087;-68
2022/09/14 09:53:53;;;;;;;11.60;2.92;;;;;;;;;;5085198;27;92879;-68
2022/09/14 09:56:24;;;;;;;5.57;3.25;;;;;;;;;;5095845;27;92297;-68
2022/09/14 09:58:50;;;;;;;13.57;3.30;;;;;;;;;;5095856;27;92809;-68
2022/09/14 10:01:19;;;;;;;9.95;3.15;;;;;;;;;;5082270;27;92465;-68
2022/09/14 10:03:58;;;;;;;12.80;3.53;;;;;;;;;;5075147;27;93463;-68
2022/09/14 10:06:25;;;;;;;17.60;3.65;;;;;;;;;;5072538;27;95872;-67
2022/09/14 10:08:52;;;;;;;8.43;3.45;;;;;;;;;;5073293;27;92491;-68
2022/09/14 10:11:30;;;;;;;5.10;3.15;;;;;;;;;;5075329;27;93067;-69
2022/09/14 10:13:56;;;;;;;14.32;3.72;;;;;;;;;;5078540;27;94263;-69
2022/09/14 10:16:24;;;;;;;8.32;3.10;;;;;;;;;;5074907;27;94260;-69
2022/09/14 10:18:51;;;;;;;12.40;3.40;;;;;;;;;;5074945;27;94062;-67
2022/09/14 10:21:19;;;;;;;6.95;3.15;;;;;;;;;;5075573;27;92372;-67
2022/09/14 10:23:46;;;;;;;7.57;2.88;;;;;;;;;;5074386;27;93117;-67
2022/09/14 10:26:12;;;;;;;8.35;3.03;;;;;;;;;;5074679;27;93391;-67
2022/09/14 10:28:48;;;;;;;7.93;3.00;;;;;;;;;;5074540;27;92900;-67
2022/09/14 10:31:18;;;;;;;10.13;2.70;;;;;;;;;;5073840;27;96810;-67
2022/09/14 10:33:45;;;;;;;8.70;3.03;;;;;;;;;;5074122;27;93285;-67
2022/09/14 10:36:11;;;;;;;7.10;3.40;;;;;;;;;;5076685;27;92429;-67
2022/09/14 10:38:41;;;;;;;6.40;2.85;;;;;;;;;;5082335;27;93305;-67
2022/09/14 10:41:07;;;;;;;11.52;3.22;;;;;;;;;;5077825;27;92438;-67
2022/09/14 10:43:37;;;;;;;13.52;3.20;;;;;;;;;;5072725;27;93100;-68
2022/09/14 10:46:04;;;;;;;10.20;3.03;;;;;;;;;;5073923;27;92380;-68
2022/09/14 10:49:03;;;;;;;7.50;2.90;;;;;;;;;;5075576;27;91773;-68
2022/09/14 10:51:41;;;;;;;6.38;3.30;;;;;;;;;;5028326;27;92551;-68
2022/09/14 10:54:25;;;;;;;7.75;2.97;;;;;;;;;;5074433;27;93311;-68
2022/09/14 10:57:03;;;;;;;15.10;2.88;;;;;;;;;;5072435;27;94833;-68
2022/09/14 10:59:38;;;;;;;6.57;3.00;;;;;;;;;;5077030;27;96253;-68
2022/09/14 11:02:16;;;;;;;10.93;3.60;;;;;;;;;;5074035;27;92581;-68
2022/09/14 11:04:56;;;;;;;8.05;2.72;;;;;;;;;;5073507;27;92968;-68
2022/09/14 11:07:25;;;;;;;8.82;3.00;;;;;;;;;;5074299;27;93786;-68
2022/09/14 11:10:04;;;;;;;8.13;3.03;;;;;;;;;;5082532;27;92587;-68
2022/09/14 11:12:33;;;;;;;12.45;2.55;;;;;;;;;;5094019;27;92980;-68
2022/09/14 11:15:07;;;;;;;12.35;2.83;;;;;;;;;;5094892;27;92835;-68
2022/09/14 11:17:43;;;;;;;6.57;2.47;;;;;;;;;;5094801;27;93286;-68
2022/09/14 11:20:15;;;;;;;7.30;2.70;;;;;;;;;;5100268;27;93935;-68
2022/09/14 11:23:00;;;;;;;13.13;3.28;;;;;;;;;;5096383;27;94773;-68
2022/09/14 11:25:32;;;;;;;9.75;2.88;;;;;;;;;;5097282;27;95656;-68
2022/09/14 11:28:02;;;;;;;7.82;2.25;;;;;;;;;;5097883;27;93547;-68
2022/09/14 11:30:33;;;;;;;6.93;2.20;;;;;;;;;;5098196;27;92402;-68
2022/09/14 11:33:06;;;;;;;8.32;3.03;;;;;;;;;;5097078;27;93192;-68
2022/09/14 11:35:38;;;;;;;13.13;2.60;;;;;;;;;;5097872;27;93493;-68
2022/09/14 11:38:11;;;;;;;7.30;2.97;;;;;;;;;;5088148;27;92396;-68
2022/09/14 11:40:43;;;;;;;9.38;2.72;;;;;;;;;;5076584;27;93190;-68
2022/09/14 11:43:12;;;;;;;6.05;2.40;;;;;;;;;;5080316;27;93327;-68
2022/09/14 11:45:49;;;;;;;16.75;3.30;;;;;;;;;;5077009;27;93272;-68
2022/09/14 11:48:18;;;;;;;13.63;2.75;;;;;;;;;;5074787;27;95684;-68
2022/09/14 11:51:08;;;;;;;8.52;2.55;;;;;;;;;;5077043;27;92317;-68
2022/09/14 11:53:35;;;;;;;11.45;3.05;;;;;;;;;;5076242;27;92919;-68
2022/09/14 11:56:01;;;;;;;13.10;3.35;;;;;;;;;;5077084;27;93349;-68
2022/09/14 11:58:28;;;;;;;9.27;2.80;;;;;;;;;;5077090;27;92516;-68
2022/09/14 12:01:00;;;;;;;7.85;2.17;;;;;;;;;;5075640;27;93162;-68
2022/09/14 12:03:59;;;;;;;7.20;2.53;;;;;;;;;;5076833;27;93466;-68
2022/09/14 12:06:34;;;;;;;7.82;2.72;;;;;;;;;;5035216;27;92422;-68
2022/09/14 12:09:12;;;;;;;6.88;2.25;;;;;;;;;;5090785;27;93290;-68
2022/09/14 12:11:39;;;;;;;9.35;2.33;;;;;;;;;;5083125;27;92416;-68
2022/09/14 12:14:18;;;;;;;6.90;2.53;;;;;;;;;;5075503;27;96031;-68
2022/09/14 12:17:02;;;;;;;13.55;2.10;;;;;;;;;;5076246;27;94072;-68
2022/09/14 12:19:54;;;;;;;9.05;2.20;;;;;;;;;;5076559;27;92708;-68
2022/09/14 12:22:36;;;;;;;6.45;1.80;;;;;;;;;;5075656;27;93421;-68
2022/09/14 12:25:13;;;;;;;11.30;2.75;;;;;;;;;;5075691;27;93542;-68
2022/09/14 12:27:41;;;;;;;8.65;2.67;;;;;;;;;;5076442;27;92419;-68
2022/09/14 12:30:25;;;;;;;9.50;2.17;;;;;;;;;;5078340;27;92914;-68
2022/09/14 12:32:52;;;;;;;3.63;1.60;;;;;;;;;;5077116;27;91691;-68
2022/09/14 12:35:33;;;;;;;10.23;1.90;;;;;;;;;;5077218;27;93398;-68
2022/09/14 12:38:19;;;;;;;6.53;1.92;;;;;;;;;;5087098;27;93575;-68
2022/09/14 12:40:46;;;;;;;7.45;1.83;;;;;;;;;;5087889;27;94971;-68
2022/09/14 12:43:31;;;;;;;6.10;1.80;;;;;;;;;;5095915;27;95427;-67
2022/09/14 12:46:09;;;;;;;9.15;1.60;;;;;;;;;;5096262;27;93374;-67
2022/09/14 12:48:44;;;;;;;9.57;1.55;;;;;;;;;;5096474;27;92393;-67
2022/09/14 12:51:14;;;;;;;6.45;1.65;;;;;;;;;;5095891;27;92946;-68
2022/09/14 12:53:42;;;;;;;2.78;1.25;;;;;;;;;;5100401;27;94314;-68
2022/09/14 12:56:20;;;;;;;7.50;1.70;;;;;;;;;;5096999;27;93786;-67
2022/09/14 12:58:58;;;;;;;5.43;1.75;;;;;;;;;;5096714;27;93287;-68
2022/09/14 13:01:45;;;;;;;9.48;5.30;;;;;;;;;;5089526;27;92555;-67
2022/09/14 13:04:14;;;;;;;3.67;1.23;;;;;;;;;;5079939;27;93035;-68
2022/09/14 13:06:44;;;;;;;6.13;1.30;;;;;;;;;;5073275;27;96506;-68
2022/09/14 13:09:19;;;;;;;4.22;1.70;;;;;;;;;;5089147;27;92584;-68
2022/09/14 13:11:46;;;;;;;7.82;1.70;;;;;;;;;;5093256;27;93789;-68
2022/09/14 13:14:17;;;;;;;11.25;1.48;;;;;;;;;;5081260;27;92402;-67
2022/09/14 13:16:45;;;;;;;5.07;1.30;;;;;;;;;;5081235;27;92468;-67
2022/09/14 13:19:19;;;;;;;3.30;1.30;;;;;;;;;;5073130;27;93381;-67
2022/09/14 13:21:47;;;;;;;3.92;1.85;;;;;;;;;;5075537;27;92385;-67
2022/09/14 13:24:21;;;;;;;5.80;1.27;;;;;;;;;;5080312;27;93833;-67
2022/09/14 13:26:48;;;;;;;9.50;1.67;;;;;;;;;;5079561;27;94282;-67
2022/09/14 13:29:14;;;;;;;6.28;1.65;;;;;;;;;;5078090;27;92587;-68
2022/09/14 13:31:43;;;;;;;5.00;2.25;;;;;;;;;;5082894;27;94860;-68
2022/09/14 13:34:23;;;;;;;2.67;1.65;;;;;;;;;;5075183;27;94302;-68
2022/09/14 13:36:50;;;;;;;8.80;1.73;;;;;;;;;;5079213;27;92417;-68
2022/09/14 13:39:20;;;;;;;3.60;1.73;;;;;;;;;;5072504;27;94279;-68
2022/09/14 13:41:46;;;;;;;5.85;1.67;;;;;;;;;;5075760;27;92534;-69
2022/09/14 13:44:13;;;;;;;6.15;1.60;;;;;;;;;;5076450;27;92467;-69
2022/09/14 13:46:39;;;;;;;6.35;1.73;;;;;;;;;;5084020;27;94889;-71
2022/09/14 13:49:06;;;;;;;9.50;1.85;;;;;;;;;;5083761;27;93354;-68
2022/09/14 13:51:34;;;;;;;7.78;1.77;;;;;;;;;;5075462;27;94163;-68
2022/09/14 13:54:17;;;;;;;9.70;1.58;;;;;;;;;;5075520;27;94527;-68
2022/09/14 13:56:44;;;;;;;3.78;1.38;;;;;;;;;;5076061;27;94874;-68
2022/09/14 13:59:22;;;;;;;4.95;1.50;;;;;;;;;;5075306;27;95308;-68
2022/09/14 14:01:55;;;;;;;12.85;1.88;;;;;;;;;;5073374;27;92864;-68
2022/09/14 14:04:24;;;;;;;13.30;2.00;;;;;;;;;;5074950;27;93068;-68
2022/09/14 14:07:20;;;;;;;3.72;1.73;;;;;;;;;;5076711;27;93959;-68
2022/09/14 14:09:46;;;;;;;4.63;1.23;;;;;;;;;;5056128;27;92761;-68
2022/09/14 14:12:20;;;;;;;4.13;1.27;;;;;;;;;;5074700;27;94198;-68
2022/09/14 14:14:57;;;;;;;1.95;1.40;;;;;;;;;;5074011;27;92707;-68
2022/09/14 14:17:26;;;;;;;6.95;1.55;;;;;;;;;;5074202;27;92693;-68
2022/09/14 14:19:54;;;;;;;6.40;1.50;;;;;;;;;;5083833;27;92942;-68
2022/09/14 14:22:20;;;;;;;6.03;1.70;;;;;;;;;;5096879;27;96862;-68
2022/09/14 14:24:47;;;;;;;1.95;1.17;;;;;;;;;;5079404;27;95345;-68
2022/09/14 14:27:36;;;;;;;7.47;1.85;;;;;;;;;;5074258;27;94176;-68
2022/09/14 14:30:12;;;;;;;4.70;1.40;;;;;;;;;;5072622;27;92689;-68
2022/09/14 14:32:38;;;;;;;15.15;1.98;;;;;;;;;;5074268;27;93176;-68
2022/09/14 14:35:14;;;;;;;6.75;1.40;;;;;;;;;;5075193;27;92460;-68
2022/09/14 14:37:40;;;;;;;9.43;1.83;;;;;;;;;;5095967;27;92296;-68
2022/09/14 14:40:09;;;;;;;3.50;1.73;;;;;;;;;;5094626;27;91942;-68
2022/09/14 14:42:36;;;;;;;3.33;1.60;;;;;;;;;;5072484;27;93986;-68
2022/09/14 14:45:02;;;;;;;5.32;1.45;;;;;;;;;;5091684;27;92488;-68
2022/09/14 14:47:29;;;;;;;12.55;1.48;;;;;;;;;;5079039;27;96502;-68
2022/09/14 14:49:55;;;;;;;6.80;1.27;;;;;;;;;;5075646;27;93122;-68
2022/09/14 14:52:21;;;;;;;3.75;1.73;;;;;;;;;;5073399;27;93995;-68
2022/09/14 14:54:48;;;;;;;4.07;1.38;;;;;;;;;;5077549;27;93237;-68
2022/09/14 14:57:14;;;;;;;2.25;1.10;;;;;;;;;;5077439;27;92535;-68
2022/09/14 14:59:41;;;;;;;4.90;1.42;;;;;;;;;;5078884;27;93093;-68